sensor_id;sensor_type;location;lat;lon;timestamp;P1;durP1;ratioP1;P2;durP2;ratioP2
39776;SDS011;25453;48.162;14.510;2024-03-08T00:00:12;53.45;;;20.13;;
39776;SDS011;25453;48.162;14.510;2024-03-08T00:02:43;57.25;;;24.02;;
39776;SDS011;25453;48.162;14.510;2024-03-08T00:05:11;54.03;;;20.80;;
39776;SDS011;25453;48.162;14.510;2024-03-08T00:07:40;55.30;;;22.13;;
39776;SDS011;25453;48.162;14.510;2024-03-08T00:10:09;51.10;;;19.77;;
39776;SDS011;25453;48.162;14.510;2024-03-08T00:12:43;61.05;;;22.80;;
39776;SDS011;25453;48.162;14.510;2024-03-08T00:15:16;55.30;;;20.98;;
39776;SDS011;25453;48.162;14.510;2024-03-08T00:17:45;60.03;;;21.85;;
39776;SDS011;25453;48.162;14.510;2024-03-08T00:20:14;56.53;;;22.60;;
39776;SDS011;25453;48.162;14.510;2024-03-08T00:22:45;60.63;;;22.20;;
39776;SDS011;25453;48.162;14.510;2024-03-08T00:25:13;63.75;;;23.70;;
39776;SDS011;25453;48.162;14.510;2024-03-08T00:27:41;60.63;;;22.48;;
39776;SDS011;25453;48.162;14.510;2024-03-08T00:30:08;54.25;;;22.92;;
39776;SDS011;25453;48.162;14.510;2024-03-08T00:32:37;50.53;;;21.50;;
39776;SDS011;25453;48.162;14.510;2024-03-08T00:35:05;54.35;;;19.92;;
39776;SDS011;25453;48.162;14.510;2024-03-08T00:37:34;51.33;;;21.33;;
39776;SDS011;25453;48.162;14.510;2024-03-08T00:40:01;52.17;;;21.95;;
39776;SDS011;25453;48.162;14.510;2024-03-08T00:42:29;54.10;;;22.90;;
39776;SDS011;25453;48.162;14.510;2024-03-08T00:44:56;56.05;;;23.15;;
39776;SDS011;25453;48.162;14.510;2024-03-08T00:47:25;52.45;;;21.42;;
39776;SDS011;25453;48.162;14.510;2024-03-08T00:49:53;58.58;;;23.55;;
39776;SDS011;25453;48.162;14.510;2024-03-08T00:52:23;57.90;;;22.70;;
39776;SDS011;25453;48.162;14.510;2024-03-08T00:54:50;55.10;;;20.85;;
39776;SDS011;25453;48.162;14.510;2024-03-08T00:57:18;50.40;;;21.38;;
39776;SDS011;25453;48.162;14.510;2024-03-08T00:59:45;59.08;;;21.17;;
39776;SDS011;25453;48.162;14.510;2024-03-08T01:02:13;62.15;;;22.17;;
39776;SDS011;25453;48.162;14.510;2024-03-08T01:04:41;57.03;;;22.80;;
39776;SDS011;25453;48.162;14.510;2024-03-08T01:07:08;58.30;;;21.30;;
39776;SDS011;25453;48.162;14.510;2024-03-08T01:09:35;55.08;;;22.25;;
39776;SDS011;25453;48.162;14.510;2024-03-08T01:12:02;62.83;;;21.88;;
39776;SDS011;25453;48.162;14.510;2024-03-08T01:14:30;60.83;;;21.77;;
39776;SDS011;25453;48.162;14.510;2024-03-08T01:16:57;60.72;;;21.60;;
39776;SDS011;25453;48.162;14.510;2024-03-08T01:19:26;49.50;;;21.75;;
39776;SDS011;25453;48.162;14.510;2024-03-08T01:21:53;50.67;;;20.17;;
39776;SDS011;25453;48.162;14.510;2024-03-08T01:24:23;51.13;;;19.02;;
39776;SDS011;25453;48.162;14.510;2024-03-08T01:26:54;45.70;;;18.13;;
39776;SDS011;25453;48.162;14.510;2024-03-08T01:29:24;42.38;;;16.23;;
39776;SDS011;25453;48.162;14.510;2024-03-08T01:31:51;41.67;;;18.10;;
39776;SDS011;25453;48.162;14.510;2024-03-08T01:34:19;45.72;;;17.38;;
39776;SDS011;25453;48.162;14.510;2024-03-08T01:36:46;49.13;;;19.17;;
39776;SDS011;25453;48.162;14.510;2024-03-08T01:39:13;52.55;;;21.13;;
39776;SDS011;25453;48.162;14.510;2024-03-08T01:41:41;53.78;;;21.20;;
39776;SDS011;25453;48.162;14.510;2024-03-08T01:44:08;51.03;;;20.05;;
39776;SDS011;25453;48.162;14.510;2024-03-08T01:46:35;45.92;;;20.00;;
39776;SDS011;25453;48.162;14.510;2024-03-08T01:49:03;50.17;;;19.20;;
39776;SDS011;25453;48.162;14.510;2024-03-08T01:51:30;45.65;;;18.13;;
39776;SDS011;25453;48.162;14.510;2024-03-08T01:53:58;56.63;;;20.50;;
39776;SDS011;25453;48.162;14.510;2024-03-08T01:56:29;52.33;;;20.33;;
39776;SDS011;25453;48.162;14.510;2024-03-08T01:58:58;52.63;;;20.35;;
39776;SDS011;25453;48.162;14.510;2024-03-08T02:01:27;61.20;;;21.45;;
39776;SDS011;25453;48.162;14.510;2024-03-08T02:03:55;45.35;;;19.33;;
39776;SDS011;25453;48.162;14.510;2024-03-08T02:06:23;54.53;;;18.90;;
39776;SDS011;25453;48.162;14.510;2024-03-08T02:08:50;50.58;;;19.90;;
39776;SDS011;25453;48.162;14.510;2024-03-08T02:11:18;48.55;;;19.13;;
39776;SDS011;25453;48.162;14.510;2024-03-08T02:13:47;49.85;;;17.52;;
39776;SDS011;25453;48.162;14.510;2024-03-08T02:16:19;43.72;;;16.77;;
39776;SDS011;25453;48.162;14.510;2024-03-08T02:18:49;46.30;;;17.23;;
39776;SDS011;25453;48.162;14.510;2024-03-08T02:21:17;44.05;;;17.08;;
39776;SDS011;25453;48.162;14.510;2024-03-08T02:23:45;50.25;;;18.92;;
39776;SDS011;25453;48.162;14.510;2024-03-08T02:26:13;43.55;;;18.05;;
39776;SDS011;25453;48.162;14.510;2024-03-08T02:28:40;46.45;;;20.55;;
39776;SDS011;25453;48.162;14.510;2024-03-08T02:31:10;43.25;;;18.48;;
39776;SDS011;25453;48.162;14.510;2024-03-08T02:33:38;41.15;;;16.10;;
39776;SDS011;25453;48.162;14.510;2024-03-08T02:36:06;39.30;;;15.73;;
39776;SDS011;25453;48.162;14.510;2024-03-08T02:38:33;38.13;;;15.57;;
39776;SDS011;25453;48.162;14.510;2024-03-08T02:41:00;40.03;;;15.10;;
39776;SDS011;25453;48.162;14.510;2024-03-08T02:43:28;38.60;;;15.13;;
39776;SDS011;25453;48.162;14.510;2024-03-08T02:45:55;42.10;;;17.08;;
39776;SDS011;25453;48.162;14.510;2024-03-08T02:48:23;38.42;;;16.80;;
39776;SDS011;25453;48.162;14.510;2024-03-08T02:50:50;43.45;;;16.17;;
39776;SDS011;25453;48.162;14.510;2024-03-08T02:53:18;53.67;;;18.60;;
39776;SDS011;25453;48.162;14.510;2024-03-08T02:55:45;49.47;;;18.95;;
39776;SDS011;25453;48.162;14.510;2024-03-08T02:58:13;55.78;;;19.85;;
39776;SDS011;25453;48.162;14.510;2024-03-08T03:00:41;42.13;;;17.27;;
39776;SDS011;25453;48.162;14.510;2024-03-08T03:03:11;44.45;;;18.42;;
39776;SDS011;25453;48.162;14.510;2024-03-08T03:05:39;51.42;;;18.00;;
39776;SDS011;25453;48.162;14.510;2024-03-08T03:10:44;49.38;;;19.33;;
39776;SDS011;25453;48.162;14.510;2024-03-08T03:13:15;51.08;;;18.98;;
39776;SDS011;25453;48.162;14.510;2024-03-08T03:15:42;48.75;;;17.83;;
39776;SDS011;25453;48.162;14.510;2024-03-08T03:18:09;49.45;;;18.98;;
39776;SDS011;25453;48.162;14.510;2024-03-08T03:20:36;45.13;;;18.17;;
39776;SDS011;25453;48.162;14.510;2024-03-08T03:23:08;41.13;;;16.38;;
39776;SDS011;25453;48.162;14.510;2024-03-08T03:25:41;36.78;;;15.02;;
39776;SDS011;25453;48.162;14.510;2024-03-08T03:28:08;46.33;;;17.65;;
39776;SDS011;25453;48.162;14.510;2024-03-08T03:30:41;49.75;;;19.58;;
39776;SDS011;25453;48.162;14.510;2024-03-08T03:33:08;53.65;;;17.92;;
39776;SDS011;25453;48.162;14.510;2024-03-08T03:35:36;48.05;;;17.70;;
39776;SDS011;25453;48.162;14.510;2024-03-08T03:38:04;39.75;;;16.75;;
39776;SDS011;25453;48.162;14.510;2024-03-08T03:40:37;38.85;;;14.88;;
39776;SDS011;25453;48.162;14.510;2024-03-08T03:43:07;38.90;;;14.02;;
39776;SDS011;25453;48.162;14.510;2024-03-08T03:45:37;34.42;;;13.52;;
39776;SDS011;25453;48.162;14.510;2024-03-08T03:48:06;32.53;;;13.18;;
39776;SDS011;25453;48.162;14.510;2024-03-08T03:50:37;34.95;;;12.90;;
39776;SDS011;25453;48.162;14.510;2024-03-08T03:53:06;38.67;;;14.70;;
39776;SDS011;25453;48.162;14.510;2024-03-08T03:55:36;38.50;;;13.82;;
39776;SDS011;25453;48.162;14.510;2024-03-08T03:58:07;37.00;;;13.35;;
39776;SDS011;25453;48.162;14.510;2024-03-08T04:00:37;34.17;;;13.02;;
39776;SDS011;25453;48.162;14.510;2024-03-08T04:03:05;36.85;;;12.75;;
39776;SDS011;25453;48.162;14.510;2024-03-08T04:05:34;31.40;;;12.48;;
39776;SDS011;25453;48.162;14.510;2024-03-08T04:08:02;35.53;;;13.38;;
39776;SDS011;25453;48.162;14.510;2024-03-08T04:10:30;35.63;;;12.98;;
39776;SDS011;25453;48.162;14.510;2024-03-08T04:12:57;36.42;;;14.50;;
39776;SDS011;25453;48.162;14.510;2024-03-08T04:15:24;35.40;;;13.73;;
39776;SDS011;25453;48.162;14.510;2024-03-08T04:17:51;33.67;;;13.70;;
39776;SDS011;25453;48.162;14.510;2024-03-08T04:20:19;33.50;;;13.55;;
39776;SDS011;25453;48.162;14.510;2024-03-08T04:22:48;37.55;;;14.52;;
39776;SDS011;25453;48.162;14.510;2024-03-08T04:25:16;35.17;;;14.07;;
39776;SDS011;25453;48.162;14.510;2024-03-08T04:27:44;36.97;;;15.80;;
39776;SDS011;25453;48.162;14.510;2024-03-08T04:30:11;40.65;;;15.40;;
39776;SDS011;25453;48.162;14.510;2024-03-08T04:32:39;36.58;;;13.70;;
39776;SDS011;25453;48.162;14.510;2024-03-08T04:35:08;36.90;;;14.45;;
39776;SDS011;25453;48.162;14.510;2024-03-08T04:37:35;42.00;;;15.73;;
39776;SDS011;25453;48.162;14.510;2024-03-08T04:40:03;35.72;;;15.20;;
39776;SDS011;25453;48.162;14.510;2024-03-08T04:42:30;39.45;;;15.85;;
39776;SDS011;25453;48.162;14.510;2024-03-08T04:44:59;39.17;;;14.85;;
39776;SDS011;25453;48.162;14.510;2024-03-08T04:47:27;40.38;;;15.85;;
39776;SDS011;25453;48.162;14.510;2024-03-08T04:49:54;39.13;;;14.73;;
39776;SDS011;25453;48.162;14.510;2024-03-08T04:52:23;43.78;;;16.48;;
39776;SDS011;25453;48.162;14.510;2024-03-08T04:54:51;47.75;;;17.45;;
39776;SDS011;25453;48.162;14.510;2024-03-08T04:57:18;49.92;;;16.83;;
39776;SDS011;25453;48.162;14.510;2024-03-08T04:59:46;48.58;;;18.88;;
39776;SDS011;25453;48.162;14.510;2024-03-08T05:02:13;53.00;;;18.40;;
39776;SDS011;25453;48.162;14.510;2024-03-08T05:04:41;44.10;;;16.80;;
39776;SDS011;25453;48.162;14.510;2024-03-08T05:07:09;45.42;;;17.65;;
39776;SDS011;25453;48.162;14.510;2024-03-08T05:09:36;51.67;;;19.58;;
39776;SDS011;25453;48.162;14.510;2024-03-08T05:12:04;55.97;;;19.92;;
39776;SDS011;25453;48.162;14.510;2024-03-08T05:14:32;47.28;;;17.98;;
39776;SDS011;25453;48.162;14.510;2024-03-08T05:17:01;48.65;;;17.20;;
39776;SDS011;25453;48.162;14.510;2024-03-08T05:19:29;52.47;;;19.05;;
39776;SDS011;25453;48.162;14.510;2024-03-08T05:22:00;45.13;;;15.73;;
39776;SDS011;25453;48.162;14.510;2024-03-08T05:24:28;45.55;;;19.65;;
39776;SDS011;25453;48.162;14.510;2024-03-08T05:26:57;43.60;;;17.42;;
39776;SDS011;25453;48.162;14.510;2024-03-08T05:29:26;48.40;;;18.30;;
39776;SDS011;25453;48.162;14.510;2024-03-08T05:31:53;43.88;;;17.58;;
39776;SDS011;25453;48.162;14.510;2024-03-08T05:34:21;46.35;;;18.50;;
39776;SDS011;25453;48.162;14.510;2024-03-08T05:36:49;43.90;;;17.85;;
39776;SDS011;25453;48.162;14.510;2024-03-08T05:39:18;53.67;;;19.38;;
39776;SDS011;25453;48.162;14.510;2024-03-08T05:41:47;42.60;;;19.10;;
39776;SDS011;25453;48.162;14.510;2024-03-08T05:44:14;49.20;;;18.95;;
39776;SDS011;25453;48.162;14.510;2024-03-08T05:46:44;47.85;;;18.23;;
39776;SDS011;25453;48.162;14.510;2024-03-08T05:49:13;47.88;;;18.02;;
39776;SDS011;25453;48.162;14.510;2024-03-08T05:51:41;46.17;;;18.30;;
39776;SDS011;25453;48.162;14.510;2024-03-08T05:54:10;47.38;;;18.95;;
39776;SDS011;25453;48.162;14.510;2024-03-08T05:56:41;50.97;;;16.60;;
39776;SDS011;25453;48.162;14.510;2024-03-08T05:59:11;40.63;;;18.45;;
39776;SDS011;25453;48.162;14.510;2024-03-08T06:01:39;45.55;;;17.45;;
39776;SDS011;25453;48.162;14.510;2024-03-08T06:04:08;51.85;;;19.42;;
39776;SDS011;25453;48.162;14.510;2024-03-08T06:06:38;47.58;;;18.48;;
39776;SDS011;25453;48.162;14.510;2024-03-08T06:09:06;43.72;;;18.58;;
39776;SDS011;25453;48.162;14.510;2024-03-08T06:11:39;42.05;;;17.27;;
39776;SDS011;25453;48.162;14.510;2024-03-08T06:14:06;45.28;;;18.40;;
39776;SDS011;25453;48.162;14.510;2024-03-08T06:16:33;35.58;;;15.70;;
39776;SDS011;25453;48.162;14.510;2024-03-08T06:19:02;48.85;;;18.75;;
39776;SDS011;25453;48.162;14.510;2024-03-08T06:21:30;49.92;;;20.52;;
39776;SDS011;25453;48.162;14.510;2024-03-08T06:23:59;47.40;;;19.40;;
39776;SDS011;25453;48.162;14.510;2024-03-08T06:26:26;51.55;;;18.60;;
39776;SDS011;25453;48.162;14.510;2024-03-08T06:28:58;47.08;;;19.17;;
39776;SDS011;25453;48.162;14.510;2024-03-08T06:31:25;49.25;;;19.00;;
39776;SDS011;25453;48.162;14.510;2024-03-08T06:33:52;47.22;;;18.77;;
39776;SDS011;25453;48.162;14.510;2024-03-08T06:36:24;49.30;;;17.50;;
39776;SDS011;25453;48.162;14.510;2024-03-08T06:38:52;59.35;;;20.65;;
39776;SDS011;25453;48.162;14.510;2024-03-08T06:41:19;55.25;;;20.95;;
39776;SDS011;25453;48.162;14.510;2024-03-08T06:43:47;41.67;;;17.50;;
39776;SDS011;25453;48.162;14.510;2024-03-08T06:46:24;49.00;;;19.55;;
39776;SDS011;25453;48.162;14.510;2024-03-08T06:48:51;55.47;;;21.33;;
39776;SDS011;25453;48.162;14.510;2024-03-08T06:51:19;57.80;;;20.70;;
39776;SDS011;25453;48.162;14.510;2024-03-08T06:53:46;56.08;;;22.20;;
39776;SDS011;25453;48.162;14.510;2024-03-08T06:56:14;49.55;;;19.38;;
39776;SDS011;25453;48.162;14.510;2024-03-08T06:58:43;47.63;;;19.63;;
39776;SDS011;25453;48.162;14.510;2024-03-08T07:01:12;51.92;;;18.85;;
39776;SDS011;25453;48.162;14.510;2024-03-08T07:03:41;55.03;;;20.65;;
39776;SDS011;25453;48.162;14.510;2024-03-08T07:06:11;54.00;;;21.00;;
39776;SDS011;25453;48.162;14.510;2024-03-08T07:08:39;48.15;;;18.83;;
39776;SDS011;25453;48.162;14.510;2024-03-08T07:11:06;50.80;;;19.50;;
39776;SDS011;25453;48.162;14.510;2024-03-08T07:13:34;44.45;;;18.45;;
39776;SDS011;25453;48.162;14.510;2024-03-08T07:16:01;50.25;;;19.17;;
39776;SDS011;25453;48.162;14.510;2024-03-08T07:18:28;55.00;;;20.17;;
39776;SDS011;25453;48.162;14.510;2024-03-08T07:20:57;53.80;;;19.48;;
39776;SDS011;25453;48.162;14.510;2024-03-08T07:23:25;52.53;;;21.52;;
39776;SDS011;25453;48.162;14.510;2024-03-08T07:26:10;53.22;;;20.17;;
39776;SDS011;25453;48.162;14.510;2024-03-08T07:28:41;50.97;;;18.77;;
39776;SDS011;25453;48.162;14.510;2024-03-08T07:31:08;52.78;;;20.92;;
39776;SDS011;25453;48.162;14.510;2024-03-08T07:33:38;50.00;;;20.48;;
39776;SDS011;25453;48.162;14.510;2024-03-08T07:36:06;48.83;;;20.92;;
39776;SDS011;25453;48.162;14.510;2024-03-08T07:38:35;58.88;;;20.60;;
39776;SDS011;25453;48.162;14.510;2024-03-08T07:41:02;55.88;;;19.85;;
39776;SDS011;25453;48.162;14.510;2024-03-08T07:43:31;51.92;;;20.80;;
39776;SDS011;25453;48.162;14.510;2024-03-08T07:45:59;51.20;;;19.83;;
39776;SDS011;25453;48.162;14.510;2024-03-08T07:48:27;55.25;;;19.42;;
39776;SDS011;25453;48.162;14.510;2024-03-08T07:50:55;54.90;;;19.75;;
39776;SDS011;25453;48.162;14.510;2024-03-08T07:53:22;47.05;;;19.63;;
39776;SDS011;25453;48.162;14.510;2024-03-08T07:55:53;42.05;;;18.58;;
39776;SDS011;25453;48.162;14.510;2024-03-08T07:58:20;54.33;;;20.13;;
39776;SDS011;25453;48.162;14.510;2024-03-08T08:00:48;52.17;;;19.45;;
39776;SDS011;25453;48.162;14.510;2024-03-08T08:03:15;53.13;;;19.48;;
39776;SDS011;25453;48.162;14.510;2024-03-08T08:05:44;49.53;;;19.08;;
39776;SDS011;25453;48.162;14.510;2024-03-08T08:08:12;58.10;;;19.80;;
39776;SDS011;25453;48.162;14.510;2024-03-08T08:10:39;49.22;;;19.98;;
39776;SDS011;25453;48.162;14.510;2024-03-08T08:13:06;41.45;;;18.23;;
39776;SDS011;25453;48.162;14.510;2024-03-08T08:15:34;51.65;;;20.30;;
39776;SDS011;25453;48.162;14.510;2024-03-08T08:18:01;53.65;;;19.60;;
39776;SDS011;25453;48.162;14.510;2024-03-08T08:20:33;46.50;;;19.02;;
39776;SDS011;25453;48.162;14.510;2024-03-08T08:23:00;49.55;;;20.08;;
39776;SDS011;25453;48.162;14.510;2024-03-08T08:25:27;51.58;;;18.98;;
39776;SDS011;25453;48.162;14.510;2024-03-08T08:27:54;47.78;;;20.00;;
39776;SDS011;25453;48.162;14.510;2024-03-08T08:30:22;53.78;;;20.15;;
39776;SDS011;25453;48.162;14.510;2024-03-08T08:32:49;45.58;;;18.25;;
39776;SDS011;25453;48.162;14.510;2024-03-08T08:35:16;49.58;;;18.90;;
39776;SDS011;25453;48.162;14.510;2024-03-08T08:37:45;55.08;;;20.75;;
39776;SDS011;25453;48.162;14.510;2024-03-08T08:40:13;45.85;;;18.25;;
39776;SDS011;25453;48.162;14.510;2024-03-08T08:42:44;50.38;;;20.13;;
39776;SDS011;25453;48.162;14.510;2024-03-08T08:45:15;47.17;;;18.67;;
39776;SDS011;25453;48.162;14.510;2024-03-08T08:50:18;55.00;;;20.27;;
39776;SDS011;25453;48.162;14.510;2024-03-08T08:52:50;47.58;;;19.48;;
39776;SDS011;25453;48.162;14.510;2024-03-08T08:55:18;50.85;;;19.60;;
39776;SDS011;25453;48.162;14.510;2024-03-08T08:57:48;54.88;;;21.55;;
39776;SDS011;25453;48.162;14.510;2024-03-08T09:00:15;52.95;;;20.85;;
39776;SDS011;25453;48.162;14.510;2024-03-08T09:02:43;49.38;;;19.15;;
39776;SDS011;25453;48.162;14.510;2024-03-08T09:05:11;46.42;;;19.23;;
39776;SDS011;25453;48.162;14.510;2024-03-08T09:07:38;48.30;;;19.35;;
39776;SDS011;25453;48.162;14.510;2024-03-08T09:10:06;47.90;;;19.00;;
39776;SDS011;25453;48.162;14.510;2024-03-08T09:12:39;46.92;;;18.90;;
39776;SDS011;25453;48.162;14.510;2024-03-08T09:15:06;45.60;;;17.65;;
39776;SDS011;25453;48.162;14.510;2024-03-08T09:17:38;41.75;;;17.90;;
39776;SDS011;25453;48.162;14.510;2024-03-08T09:20:07;39.53;;;16.13;;
39776;SDS011;25453;48.162;14.510;2024-03-08T09:22:44;39.90;;;16.95;;
39776;SDS011;25453;48.162;14.510;2024-03-08T09:25:13;39.13;;;16.05;;
39776;SDS011;25453;48.162;14.510;2024-03-08T09:27:40;44.90;;;17.85;;
39776;SDS011;25453;48.162;14.510;2024-03-08T09:30:08;44.92;;;18.80;;
39776;SDS011;25453;48.162;14.510;2024-03-08T09:32:35;38.33;;;15.77;;
39776;SDS011;25453;48.162;14.510;2024-03-08T09:35:04;37.63;;;15.80;;
39776;SDS011;25453;48.162;14.510;2024-03-08T09:37:35;39.97;;;16.60;;
39776;SDS011;25453;48.162;14.510;2024-03-08T09:40:03;38.10;;;16.20;;
39776;SDS011;25453;48.162;14.510;2024-03-08T09:42:31;39.05;;;16.83;;
39776;SDS011;25453;48.162;14.510;2024-03-08T09:44:58;43.35;;;16.63;;
39776;SDS011;25453;48.162;14.510;2024-03-08T09:47:25;38.70;;;16.73;;
39776;SDS011;25453;48.162;14.510;2024-03-08T09:50:00;38.40;;;14.80;;
39776;SDS011;25453;48.162;14.510;2024-03-08T09:52:28;39.63;;;14.18;;
39776;SDS011;25453;48.162;14.510;2024-03-08T09:54:57;33.08;;;14.05;;
39776;SDS011;25453;48.162;14.510;2024-03-08T09:57:26;32.55;;;13.20;;
39776;SDS011;25453;48.162;14.510;2024-03-08T09:59:55;34.03;;;15.18;;
39776;SDS011;25453;48.162;14.510;2024-03-08T10:02:22;29.45;;;12.60;;
39776;SDS011;25453;48.162;14.510;2024-03-08T10:04:51;30.60;;;14.02;;
39776;SDS011;25453;48.162;14.510;2024-03-08T10:07:20;31.33;;;13.60;;
39776;SDS011;25453;48.162;14.510;2024-03-08T10:09:47;33.17;;;13.30;;
39776;SDS011;25453;48.162;14.510;2024-03-08T10:12:17;36.45;;;14.40;;
39776;SDS011;25453;48.162;14.510;2024-03-08T10:14:46;32.22;;;14.43;;
39776;SDS011;25453;48.162;14.510;2024-03-08T10:17:13;31.08;;;14.10;;
39776;SDS011;25453;48.162;14.510;2024-03-08T10:19:49;33.42;;;14.82;;
39776;SDS011;25453;48.162;14.510;2024-03-08T10:22:19;36.67;;;13.93;;
39776;SDS011;25453;48.162;14.510;2024-03-08T10:24:47;39.85;;;14.40;;
39776;SDS011;25453;48.162;14.510;2024-03-08T10:27:16;31.17;;;13.32;;
39776;SDS011;25453;48.162;14.510;2024-03-08T10:29:47;34.63;;;13.52;;
39776;SDS011;25453;48.162;14.510;2024-03-08T10:32:15;30.67;;;13.55;;
39776;SDS011;25453;48.162;14.510;2024-03-08T10:34:42;30.90;;;13.98;;
39776;SDS011;25453;48.162;14.510;2024-03-08T10:37:13;34.20;;;14.35;;
39776;SDS011;25453;48.162;14.510;2024-03-08T10:40:10;40.17;;;16.63;;
39776;SDS011;25453;48.162;14.510;2024-03-08T10:42:47;33.05;;;13.80;;
39776;SDS011;25453;48.162;14.510;2024-03-08T10:45:35;30.70;;;13.77;;
39776;SDS011;25453;48.162;14.510;2024-03-08T10:48:05;38.13;;;13.95;;
39776;SDS011;25453;48.162;14.510;2024-03-08T10:50:36;33.83;;;14.07;;
39776;SDS011;25453;48.162;14.510;2024-03-08T10:53:06;33.30;;;13.80;;
39776;SDS011;25453;48.162;14.510;2024-03-08T10:55:37;33.55;;;13.63;;
39776;SDS011;25453;48.162;14.510;2024-03-08T10:58:07;27.10;;;12.45;;
39776;SDS011;25453;48.162;14.510;2024-03-08T11:00:35;32.72;;;14.18;;
39776;SDS011;25453;48.162;14.510;2024-03-08T11:03:03;33.40;;;14.35;;
39776;SDS011;25453;48.162;14.510;2024-03-08T11:05:40;27.15;;;13.27;;
39776;SDS011;25453;48.162;14.510;2024-03-08T11:10:52;33.08;;;13.63;;
39776;SDS011;25453;48.162;14.510;2024-03-08T11:13:39;31.83;;;13.18;;
39776;SDS011;25453;48.162;14.510;2024-03-08T11:16:08;26.33;;;12.15;;
39776;SDS011;25453;48.162;14.510;2024-03-08T11:21:38;22.75;;;10.10;;
39776;SDS011;25453;48.162;14.510;2024-03-08T11:24:06;27.02;;;11.48;;
39776;SDS011;25453;48.162;14.510;2024-03-08T11:26:38;30.15;;;11.98;;
39776;SDS011;25453;48.162;14.510;2024-03-08T11:34:40;28.65;;;12.38;;
39776;SDS011;25453;48.162;14.510;2024-03-08T11:37:12;24.42;;;10.75;;
39776;SDS011;25453;48.162;14.510;2024-03-08T11:39:48;27.95;;;12.35;;
39776;SDS011;25453;48.162;14.510;2024-03-08T11:42:16;23.85;;;10.77;;
39776;SDS011;25453;48.162;14.510;2024-03-08T11:44:46;32.88;;;12.80;;
39776;SDS011;25453;48.162;14.510;2024-03-08T11:47:14;23.60;;;11.20;;
39776;SDS011;25453;48.162;14.510;2024-03-08T11:49:43;21.88;;;10.48;;
39776;SDS011;25453;48.162;14.510;2024-03-08T11:52:11;27.15;;;11.30;;
39776;SDS011;25453;48.162;14.510;2024-03-08T11:54:40;27.55;;;11.65;;
39776;SDS011;25453;48.162;14.510;2024-03-08T11:57:07;26.80;;;10.88;;
39776;SDS011;25453;48.162;14.510;2024-03-08T11:59:36;26.40;;;12.05;;
39776;SDS011;25453;48.162;14.510;2024-03-08T12:02:04;29.17;;;12.10;;
39776;SDS011;25453;48.162;14.510;2024-03-08T12:04:32;26.58;;;11.02;;
39776;SDS011;25453;48.162;14.510;2024-03-08T12:07:03;24.17;;;11.10;;
39776;SDS011;25453;48.162;14.510;2024-03-08T12:09:35;26.20;;;11.80;;
39776;SDS011;25453;48.162;14.510;2024-03-08T12:12:03;27.38;;;11.20;;
39776;SDS011;25453;48.162;14.510;2024-03-08T12:14:34;28.02;;;11.65;;
39776;SDS011;25453;48.162;14.510;2024-03-08T12:17:01;25.75;;;10.60;;
39776;SDS011;25453;48.162;14.510;2024-03-08T12:19:30;26.00;;;10.27;;
39776;SDS011;25453;48.162;14.510;2024-03-08T12:21:57;25.70;;;9.20;;
39776;SDS011;25453;48.162;14.510;2024-03-08T12:24:36;21.98;;;10.07;;
39776;SDS011;25453;48.162;14.510;2024-03-08T12:27:17;21.70;;;9.77;;
39776;SDS011;25453;48.162;14.510;2024-03-08T12:29:46;23.77;;;10.00;;
39776;SDS011;25453;48.162;14.510;2024-03-08T12:32:13;23.67;;;11.40;;
39776;SDS011;25453;48.162;14.510;2024-03-08T12:34:42;22.92;;;10.25;;
39776;SDS011;25453;48.162;14.510;2024-03-08T12:37:12;23.80;;;11.00;;
39776;SDS011;25453;48.162;14.510;2024-03-08T12:39:40;28.35;;;10.07;;
39776;SDS011;25453;48.162;14.510;2024-03-08T12:42:12;22.10;;;9.40;;
39776;SDS011;25453;48.162;14.510;2024-03-08T12:44:39;22.30;;;9.45;;
39776;SDS011;25453;48.162;14.510;2024-03-08T12:47:09;20.63;;;9.23;;
39776;SDS011;25453;48.162;14.510;2024-03-08T12:49:38;21.90;;;9.20;;
39776;SDS011;25453;48.162;14.510;2024-03-08T12:52:08;19.63;;;8.52;;
39776;SDS011;25453;48.162;14.510;2024-03-08T12:54:37;17.63;;;8.65;;
39776;SDS011;25453;48.162;14.510;2024-03-08T12:57:04;21.58;;;8.55;;
39776;SDS011;25453;48.162;14.510;2024-03-08T12:59:31;18.25;;;8.65;;
39776;SDS011;25453;48.162;14.510;2024-03-08T13:01:58;21.05;;;8.57;;
39776;SDS011;25453;48.162;14.510;2024-03-08T13:04:26;19.20;;;7.55;;
39776;SDS011;25453;48.162;14.510;2024-03-08T13:06:54;18.98;;;8.60;;
39776;SDS011;25453;48.162;14.510;2024-03-08T13:09:22;16.98;;;7.97;;
39776;SDS011;25453;48.162;14.510;2024-03-08T13:11:49;19.10;;;8.15;;
39776;SDS011;25453;48.162;14.510;2024-03-08T13:14:16;17.73;;;8.07;;
39776;SDS011;25453;48.162;14.510;2024-03-08T13:16:44;16.55;;;8.13;;
39776;SDS011;25453;48.162;14.510;2024-03-08T13:19:15;18.58;;;8.82;;
39776;SDS011;25453;48.162;14.510;2024-03-08T13:21:43;18.63;;;8.75;;
39776;SDS011;25453;48.162;14.510;2024-03-08T13:24:16;18.60;;;7.82;;
39776;SDS011;25453;48.162;14.510;2024-03-08T13:26:45;20.13;;;8.88;;
39776;SDS011;25453;48.162;14.510;2024-03-08T13:29:14;17.27;;;7.80;;
39776;SDS011;25453;48.162;14.510;2024-03-08T13:31:41;17.33;;;7.28;;
39776;SDS011;25453;48.162;14.510;2024-03-08T13:34:08;19.88;;;8.18;;
39776;SDS011;25453;48.162;14.510;2024-03-08T13:36:38;19.38;;;8.73;;
39776;SDS011;25453;48.162;14.510;2024-03-08T13:39:11;18.23;;;8.02;;
39776;SDS011;25453;48.162;14.510;2024-03-08T13:41:47;16.88;;;7.70;;
39776;SDS011;25453;48.162;14.510;2024-03-08T13:44:14;19.90;;;8.38;;
39776;SDS011;25453;48.162;14.510;2024-03-08T13:46:46;16.75;;;7.72;;
39776;SDS011;25453;48.162;14.510;2024-03-08T13:49:18;19.40;;;8.38;;
39776;SDS011;25453;48.162;14.510;2024-03-08T13:51:46;20.63;;;8.38;;
39776;SDS011;25453;48.162;14.510;2024-03-08T13:54:13;19.98;;;7.20;;
39776;SDS011;25453;48.162;14.510;2024-03-08T13:56:42;15.23;;;7.13;;
39776;SDS011;25453;48.162;14.510;2024-03-08T13:59:11;18.40;;;7.78;;
39776;SDS011;25453;48.162;14.510;2024-03-08T14:01:39;20.77;;;7.93;;
39776;SDS011;25453;48.162;14.510;2024-03-08T14:04:06;19.85;;;8.45;;
39776;SDS011;25453;48.162;14.510;2024-03-08T14:06:35;17.92;;;7.35;;
39776;SDS011;25453;48.162;14.510;2024-03-08T14:09:02;18.40;;;7.00;;
39776;SDS011;25453;48.162;14.510;2024-03-08T14:11:29;18.08;;;7.95;;
39776;SDS011;25453;48.162;14.510;2024-03-08T14:13:57;16.55;;;8.20;;
39776;SDS011;25453;48.162;14.510;2024-03-08T14:16:24;16.85;;;7.72;;
39776;SDS011;25453;48.162;14.510;2024-03-08T14:18:52;14.05;;;7.22;;
39776;SDS011;25453;48.162;14.510;2024-03-08T14:21:20;17.65;;;7.75;;
39776;SDS011;25453;48.162;14.510;2024-03-08T14:23:48;18.67;;;8.07;;
39776;SDS011;25453;48.162;14.510;2024-03-08T14:26:17;19.38;;;8.70;;
39776;SDS011;25453;48.162;14.510;2024-03-08T14:28:44;18.35;;;7.60;;
39776;SDS011;25453;48.162;14.510;2024-03-08T14:31:12;18.95;;;8.02;;
39776;SDS011;25453;48.162;14.510;2024-03-08T14:33:39;19.50;;;8.27;;
39776;SDS011;25453;48.162;14.510;2024-03-08T14:36:09;13.85;;;6.88;;